createdAt,value
2019-01-02T00:00:33.046Z,2
2019-01-02T00:03:32.987Z,2.5
2019-01-02T00:06:35.327Z,2.2
2019-01-02T00:09:35.141Z,1.9
2019-01-02T00:12:31.566Z,1.9
2019-01-02T00:15:32.495Z,1.9
2019-01-02T00:18:31.878Z,2
2019-01-02T00:21:32.166Z,2
2019-01-02T00:24:31.994Z,1.9
2019-01-02T00:27:31.632Z,2
2019-01-02T00:30:35.187Z,1.9
2019-01-02T00:33:35.416Z,2.2
2019-01-02T00:36:31.887Z,2.3
2019-01-02T00:39:31.568Z,2.4
2019-01-02T00:42:31.865Z,2.4
2019-01-02T00:45:32.087Z,2.4
2019-01-02T00:48:33.195Z,2
2019-01-02T00:51:34.726Z,2.3
2019-01-02T00:54:31.490Z,2.1
2019-01-02T00:57:31.521Z,2.1
2019-01-02T01:00:32.422Z,2.5
2019-01-02T01:03:35.220Z,2.7
2019-01-02T01:06:34.937Z,2.9
2019-01-02T01:09:31.543Z,2.6
2019-01-02T01:12:31.600Z,2.3
2019-01-02T01:15:31.828Z,2.1
2019-01-02T01:18:34.334Z,2.2
2019-01-02T01:21:34.941Z,1.9
2019-01-02T01:24:35.267Z,2.2
2019-01-02T01:27:34.472Z,2.6
2019-01-02T01:30:32.034Z,2.1
2019-01-02T01:33:31.855Z,2
2019-01-02T01:36:31.820Z,1.8
2019-01-02T01:39:31.725Z,1.9
2019-01-02T01:42:31.726Z,2.3
2019-01-02T01:45:31.467Z,2.4
2019-01-02T01:48:31.483Z,2.3
2019-01-02T01:51:32.841Z,2.1
2019-01-02T01:54:31.818Z,2.3
2019-01-02T01:57:31.884Z,2.1
2019-01-02T02:00:32.228Z,2
2019-01-02T02:03:32.118Z,2.1
2019-01-02T02:06:32.060Z,2.1
2019-01-02T02:09:31.878Z,2.1
2019-01-02T02:12:31.898Z,2.1
2019-01-02T02:15:32.430Z,2
2019-01-02T02:18:35.142Z,2
2019-01-02T02:21:34.858Z,2
2019-01-02T02:24:34.573Z,2.3
2019-01-02T02:27:34.697Z,2.4
2019-01-02T02:30:31.456Z,2.2
2019-01-02T02:33:34.942Z,2.1
2019-01-02T02:36:34.759Z,2.3
2019-01-02T02:39:34.987Z,2.2
2019-01-02T02:42:35.318Z,2.6
2019-01-02T02:45:34.824Z,2.6
2019-01-02T02:48:35.266Z,2.4
2019-01-02T02:51:35.175Z,2.3
2019-01-02T02:54:31.513Z,2.3
2019-01-02T02:57:31.459Z,2.5
2019-01-02T03:00:31.480Z,2.5
2019-01-02T03:03:31.514Z,2.4
2019-01-02T03:06:35.180Z,2.1
2019-01-02T03:09:31.873Z,2.4
2019-01-02T03:12:31.549Z,2.5
2019-01-02T03:15:35.243Z,2.7
2019-01-02T03:18:34.956Z,2.4
2019-01-02T03:21:34.363Z,2.6
2019-01-02T03:24:34.181Z,2.3
2019-01-02T03:27:35.225Z,2.5
2019-01-02T03:30:35.149Z,2.4
2019-01-02T03:33:31.625Z,2.6
2019-01-02T03:36:31.496Z,2.6
2019-01-02T03:39:31.496Z,2.7
2019-01-02T03:42:32.227Z,2.4
2019-01-02T03:45:31.557Z,2.2
2019-01-02T03:48:31.505Z,2.3
2019-01-02T03:51:31.384Z,2.4
2019-01-02T03:54:31.719Z,2.3
2019-01-02T03:57:31.474Z,2.3
2019-01-02T04:00:31.250Z,2.7
2019-01-02T04:03:31.552Z,2.5
2019-01-02T04:06:31.839Z,2.6
2019-01-02T04:09:31.523Z,3
2019-01-02T04:12:31.532Z,2.8
2019-01-02T04:15:31.403Z,2.4
2019-01-02T04:18:31.790Z,2.8
2019-01-02T04:21:31.830Z,2.5
2019-01-02T04:24:31.690Z,2.7
2019-01-02T04:27:31.526Z,2.6
2019-01-02T04:30:31.686Z,2.6
2019-01-02T04:33:31.771Z,2.3
2019-01-02T04:36:31.395Z,2.2
2019-01-02T04:39:31.369Z,2.7
2019-01-02T04:42:31.912Z,2.7
2019-01-02T04:45:31.490Z,2.4
2019-01-02T04:48:31.454Z,2.7
2019-01-02T04:51:31.536Z,2.5
2019-01-02T04:54:31.805Z,2.5
2019-01-02T04:57:31.719Z,2.7
2019-01-02T05:00:31.570Z,2.6
2019-01-02T05:03:31.308Z,2.4
2019-01-02T05:06:31.421Z,2.1
2019-01-02T05:09:31.455Z,1.9
2019-01-02T05:12:31.729Z,2
2019-01-02T05:15:31.722Z,2.1
2019-01-02T05:18:31.810Z,2
2019-01-02T05:21:31.499Z,2
2019-01-02T05:24:32.032Z,2.2
2019-01-02T05:27:31.850Z,2.2
2019-01-02T05:30:31.728Z,2.1
2019-01-02T05:33:31.754Z,2.2
2019-01-02T05:36:31.743Z,2.1
2019-01-02T05:39:31.819Z,1.9
2019-01-02T05:42:31.518Z,2.4
2019-01-02T05:45:31.602Z,2.6
2019-01-02T05:48:31.424Z,2.8
2019-01-02T05:51:31.184Z,2.6
2019-01-02T05:54:31.466Z,2.4
2019-01-02T05:57:31.460Z,2.5
2019-01-02T06:00:31.524Z,2.4
2019-01-02T06:03:31.444Z,2.8
2019-01-02T06:06:31.293Z,2.5
2019-01-02T06:09:31.294Z,2.4
2019-01-02T06:12:31.340Z,2.2
2019-01-02T06:15:31.450Z,2.3
2019-01-02T06:18:31.714Z,2.7
2019-01-02T06:21:31.324Z,2.7
2019-01-02T06:24:31.176Z,2.3
2019-01-02T06:27:31.219Z,2.4
2019-01-02T06:30:31.461Z,2.4
2019-01-02T06:33:31.643Z,2.2
2019-01-02T06:36:31.646Z,2.2
2019-01-02T06:39:31.361Z,2.6
2019-01-02T06:42:32.345Z,2.4
2019-01-02T06:45:31.324Z,5.7
2019-01-02T06:48:31.219Z,7.3
2019-01-02T06:51:31.703Z,7.4
2019-01-02T06:54:31.385Z,7.1
2019-01-02T06:57:31.664Z,6.8
2019-01-02T07:00:31.265Z,5.8
2019-01-02T07:03:31.287Z,6
2019-01-02T07:06:31.327Z,5.3
2019-01-02T07:09:31.312Z,5.2
2019-01-02T07:12:31.728Z,5.2
2019-01-02T07:15:32.138Z,4.8
2019-01-02T07:18:32.072Z,4.8
2019-01-02T07:21:31.839Z,4.9
2019-01-02T07:24:31.805Z,4.2
2019-01-02T07:27:31.345Z,4.8
2019-01-02T07:30:31.427Z,4.4
2019-01-02T07:33:31.202Z,4.6
2019-01-02T07:36:31.886Z,4.3
2019-01-02T07:39:32.335Z,5.3
2019-01-02T07:42:31.563Z,5.2
2019-01-02T07:45:32.264Z,4.8
2019-01-02T07:48:31.325Z,4.7
2019-01-02T07:51:31.538Z,4.5
2019-01-02T07:54:31.443Z,4.8
2019-01-02T07:57:31.325Z,4.5
2019-01-02T08:00:31.335Z,3.9
2019-01-02T08:03:31.279Z,3.7
2019-01-02T08:06:31.229Z,3.6
2019-01-02T08:09:31.533Z,3.8
2019-01-02T08:12:31.320Z,4.1
2019-01-02T08:15:31.955Z,4.5
2019-01-02T08:18:31.470Z,3.9
2019-01-02T08:21:31.491Z,3.8
2019-01-02T08:24:31.196Z,4.5
2019-01-02T08:27:31.535Z,4
2019-01-02T08:30:31.782Z,3.9
2019-01-02T08:33:31.903Z,3.6
2019-01-02T08:36:31.288Z,4.1
2019-01-02T08:39:32.135Z,4.5
2019-01-02T08:42:31.434Z,3.8
2019-01-02T08:45:31.622Z,3.6
2019-01-02T08:48:31.813Z,3.7
2019-01-02T08:51:31.517Z,3.8
2019-01-02T08:54:31.278Z,4.2
2019-01-02T08:57:31.565Z,3.8
2019-01-02T09:00:31.612Z,3.1
2019-01-02T09:03:31.341Z,3.4
2019-01-02T09:06:31.444Z,3.4
2019-01-02T09:09:31.655Z,3.4
2019-01-02T09:12:31.363Z,4.1
2019-01-02T09:15:31.506Z,4.3
2019-01-02T09:18:31.269Z,3.7
2019-01-02T09:21:31.313Z,5.4
2019-01-02T09:24:31.351Z,5.5
2019-01-02T09:27:31.382Z,5.5
2019-01-02T09:30:31.378Z,5.8
2019-01-02T09:33:31.278Z,5.7
2019-01-02T09:36:31.761Z,7.4
2019-01-02T09:39:31.457Z,6
2019-01-02T09:42:31.355Z,5.7
2019-01-02T09:45:31.481Z,6.2
2019-01-02T09:48:31.163Z,6.9
2019-01-02T09:51:31.139Z,7.2
2019-01-02T09:54:31.918Z,7
2019-01-02T09:57:31.488Z,8.4
2019-01-02T10:00:31.221Z,7.8
2019-01-02T10:03:31.393Z,7.9
2019-01-02T10:06:31.444Z,8.2
2019-01-02T10:09:31.765Z,7.9
2019-01-02T10:12:31.286Z,8.4
2019-01-02T10:15:31.293Z,7.6
2019-01-02T10:18:31.843Z,9.1
2019-01-02T10:21:31.245Z,9.5
2019-01-02T10:24:31.311Z,9.8
2019-01-02T10:27:31.286Z,9.9
2019-01-02T10:30:31.747Z,9.4
2019-01-02T10:33:32.321Z,9.8
2019-01-02T10:36:31.414Z,10.7
2019-01-02T10:39:31.477Z,9.1
2019-01-02T10:42:31.514Z,8.4
2019-01-02T10:45:31.100Z,7.1
2019-01-02T10:48:31.438Z,8.1
2019-01-02T10:51:31.104Z,8.1
2019-01-02T10:54:31.292Z,6.6
2019-01-02T10:57:31.361Z,6.1
2019-01-02T11:00:31.541Z,8.1
2019-01-02T11:03:31.280Z,6.3
2019-01-02T11:06:32.103Z,6.1
2019-01-02T11:09:31.697Z,5.7
2019-01-02T11:12:31.324Z,5.6
2019-01-02T11:15:31.308Z,6.2
2019-01-02T11:18:31.309Z,5.9
2019-01-02T11:21:31.349Z,5.1
2019-01-02T11:24:31.569Z,4.6
2019-01-02T11:27:31.043Z,3.8
2019-01-02T11:30:31.433Z,5
2019-01-02T11:33:31.890Z,4.9
2019-01-02T11:36:31.188Z,4.9
2019-01-02T11:39:31.445Z,4.5
2019-01-02T11:42:31.633Z,4.9
2019-01-02T11:45:31.529Z,4.4
2019-01-02T11:48:31.452Z,4.3
2019-01-02T11:51:31.624Z,4.7
2019-01-02T11:54:31.133Z,3.9
2019-01-02T11:57:31.359Z,4.4
2019-01-02T12:00:31.567Z,3.9
2019-01-02T12:03:32.051Z,5
2019-01-02T12:06:31.604Z,4.3
2019-01-02T12:09:31.751Z,4.1
2019-01-02T12:12:31.215Z,3.8
2019-01-02T12:15:31.247Z,3.8
2019-01-02T12:18:31.581Z,5.1
2019-01-02T12:21:31.364Z,4.5
2019-01-02T12:24:31.326Z,4
2019-01-02T12:27:31.657Z,3.9
2019-01-02T12:30:32.222Z,3.8
2019-01-02T12:33:31.480Z,3.9
2019-01-02T12:36:31.256Z,3.4
2019-01-02T12:39:31.358Z,3.6
2019-01-02T12:42:31.043Z,3.5
2019-01-02T12:45:31.220Z,4
2019-01-02T12:48:31.361Z,3.9
2019-01-02T12:51:31.153Z,3.2
2019-01-02T12:54:31.578Z,3.1
2019-01-02T12:57:31.261Z,3.8
2019-01-02T13:00:31.284Z,3.5
2019-01-02T13:03:31.189Z,3.1
2019-01-02T13:06:31.260Z,2.9
2019-01-02T13:09:31.317Z,3.4
2019-01-02T13:12:31.115Z,3.4
2019-01-02T13:15:31.545Z,3.1
2019-01-02T13:18:31.254Z,3.1
2019-01-02T13:21:31.356Z,3.5
2019-01-02T13:24:31.298Z,3.3
2019-01-02T13:27:31.201Z,3.4
2019-01-02T13:30:31.838Z,3.8
2019-01-02T13:33:31.685Z,4
2019-01-02T13:36:31.112Z,3.5
2019-01-02T13:39:31.307Z,3.4
2019-01-02T13:42:31.629Z,5.7
2019-01-02T13:45:31.179Z,6
2019-01-02T13:48:31.582Z,5.3
2019-01-02T13:51:31.323Z,4.5
2019-01-02T13:54:31.550Z,5.7
2019-01-02T13:57:31.392Z,4.8
2019-01-02T14:00:31.733Z,4.4
2019-01-02T14:03:31.179Z,4.3
2019-01-02T14:06:31.218Z,3.8
2019-01-02T14:09:31.443Z,3.9
2019-01-02T14:12:31.676Z,4.2
2019-01-02T14:15:31.450Z,4.2
2019-01-02T14:18:31.673Z,4.5
2019-01-02T14:21:31.219Z,4.7
2019-01-02T14:24:31.294Z,4.2
2019-01-02T14:27:31.273Z,4.1
2019-01-02T14:30:31.393Z,3.7
2019-01-02T14:33:31.323Z,3.4
2019-01-02T14:36:31.733Z,4.1
2019-01-02T14:39:31.154Z,4.9
2019-01-02T14:42:31.286Z,4.6
2019-01-02T14:45:32.164Z,4.6
2019-01-02T14:48:31.086Z,4.5
2019-01-02T14:51:31.292Z,4.2
2019-01-02T14:54:31.491Z,4.3
2019-01-02T14:57:31.874Z,4
2019-01-02T15:00:31.229Z,3.6
2019-01-02T15:03:31.273Z,4.5
2019-01-02T15:06:31.576Z,4.3
2019-01-02T15:09:31.126Z,4.7
2019-01-02T15:12:31.326Z,3.8
2019-01-02T15:15:31.234Z,3.7
2019-01-02T15:18:31.431Z,4.1
2019-01-02T15:21:30.983Z,4.3
2019-01-02T15:24:31.239Z,4.7
2019-01-02T15:27:32.165Z,5.6
2019-01-02T15:30:31.182Z,5.3
2019-01-02T15:33:31.205Z,4.5
2019-01-02T15:36:31.012Z,4.2
2019-01-02T15:39:31.129Z,4
2019-01-02T15:42:31.130Z,3.4
2019-01-02T15:45:31.587Z,3.9
2019-01-02T15:48:31.280Z,3.6
2019-01-02T15:51:31.163Z,3.5
2019-01-02T15:54:31.735Z,3.4
2019-01-02T15:57:31.670Z,3.2
2019-01-02T16:00:31.576Z,3.1
2019-01-02T16:03:31.363Z,3.4
2019-01-02T16:06:31.290Z,3.3
2019-01-02T16:09:31.364Z,3.7
2019-01-02T16:12:31.593Z,3.6
2019-01-02T16:15:31.351Z,3.1
2019-01-02T16:18:31.814Z,3
2019-01-02T16:21:31.155Z,3.1
2019-01-02T16:24:31.486Z,3.3
2019-01-02T16:27:31.323Z,2.8
2019-01-02T16:30:31.117Z,2.9
2019-01-02T16:33:31.250Z,2.7
2019-01-02T16:36:31.759Z,2.7
2019-01-02T16:39:31.610Z,2.4
2019-01-02T16:42:32.116Z,2.7
2019-01-02T16:45:31.239Z,3.1
2019-01-02T16:48:31.211Z,4.2
2019-01-02T16:51:31.061Z,5
2019-01-02T16:54:31.874Z,3.9
2019-01-02T16:57:31.217Z,3.6
2019-01-02T17:00:31.023Z,3.2
2019-01-02T17:03:31.217Z,2.9
2019-01-02T17:06:31.373Z,3
2019-01-02T17:09:31.492Z,3
2019-01-02T17:12:31.208Z,3
2019-01-02T17:15:31.501Z,3.3
2019-01-02T17:18:31.537Z,4
2019-01-02T17:21:31.187Z,3.5
2019-01-02T17:24:31.384Z,3.6
2019-01-02T17:27:30.927Z,3.5
2019-01-02T17:30:31.310Z,4.1
2019-01-02T17:33:31.826Z,5.2
2019-01-02T17:36:31.385Z,4.7
2019-01-02T17:39:31.497Z,4.6
2019-01-02T17:42:31.403Z,5.4
2019-01-02T17:45:31.806Z,4.8
2019-01-02T17:48:31.194Z,5.1
2019-01-02T17:51:31.636Z,5.4
2019-01-02T17:54:31.467Z,5
2019-01-02T17:57:31.667Z,4.9
2019-01-02T18:00:31.148Z,5.5
2019-01-02T18:03:31.195Z,5.2
2019-01-02T18:06:31.805Z,5.3
2019-01-02T18:09:31.556Z,6.1
2019-01-02T18:12:30.959Z,5
2019-01-02T18:15:31.609Z,4.7
2019-01-02T18:18:31.018Z,6.9
2019-01-02T18:21:31.383Z,8.3
2019-01-02T18:24:31.380Z,8.6
2019-01-02T18:27:32.725Z,7.8
2019-01-02T18:30:31.298Z,8
2019-01-02T18:33:31.519Z,7
2019-01-02T18:36:31.495Z,7.5
2019-01-02T18:39:31.105Z,8.7
2019-01-02T18:42:31.544Z,7.1
2019-01-02T18:45:31.165Z,8
2019-01-02T18:48:31.145Z,9.1
2019-01-02T18:51:31.280Z,7.1
2019-01-02T18:54:30.935Z,5.7
2019-01-02T18:57:31.072Z,6.2
2019-01-02T19:00:31.370Z,5.9
2019-01-02T19:03:31.295Z,6.2
2019-01-02T19:06:31.420Z,8.8
2019-01-02T19:09:31.421Z,6.9
2019-01-02T19:12:31.625Z,6.4
2019-01-02T19:15:31.847Z,5.1
2019-01-02T19:18:31.177Z,4.9
2019-01-02T19:21:31.095Z,5
2019-01-02T19:24:31.199Z,5.1
2019-01-02T19:27:31.219Z,5.2
2019-01-02T19:30:31.462Z,5.4
2019-01-02T19:33:30.967Z,4.8
2019-01-02T19:36:31.291Z,4.5
2019-01-02T19:39:31.038Z,4.2
2019-01-02T19:42:32.011Z,4.4
2019-01-02T19:45:30.781Z,4.8
2019-01-02T19:48:31.687Z,5.4
2019-01-02T19:51:31.333Z,4.8
2019-01-02T19:54:30.910Z,4.2
2019-01-02T19:57:31.111Z,5.5
2019-01-02T20:00:31.892Z,7.4
2019-01-02T20:03:30.865Z,6.3
2019-01-02T20:06:31.136Z,5.7
2019-01-02T20:09:31.479Z,5
2019-01-02T20:12:31.360Z,5.1
2019-01-02T20:15:31.488Z,4.9
2019-01-02T20:18:31.180Z,5.4
2019-01-02T20:21:31.341Z,5.1
2019-01-02T20:24:31.157Z,4.7
2019-01-02T20:27:31.385Z,5.9
2019-01-02T20:30:31.158Z,5.1
2019-01-02T20:33:31.145Z,5
2019-01-02T20:36:30.904Z,4.3
2019-01-02T20:39:32.085Z,4.3
2019-01-02T20:42:30.936Z,4.2
2019-01-02T20:45:32.865Z,3.9
2019-01-02T20:48:31.348Z,3.4
2019-01-02T20:51:31.338Z,3.4
2019-01-02T20:54:31.006Z,4.4
2019-01-02T20:57:30.958Z,3.9
2019-01-02T21:00:31.425Z,4.1
2019-01-02T21:03:31.177Z,4.4
2019-01-02T21:06:31.487Z,3.8
2019-01-02T21:09:30.998Z,4.3
2019-01-02T21:12:31.597Z,4.4
2019-01-02T21:15:31.572Z,4.4
2019-01-02T21:18:31.163Z,4.6
2019-01-02T21:21:31.178Z,4.4
2019-01-02T21:24:31.395Z,4
2019-01-02T21:27:31.120Z,4.3
2019-01-02T21:30:31.346Z,3.9
2019-01-02T21:33:31.180Z,4.3
2019-01-02T21:36:31.415Z,4
2019-01-02T21:39:31.517Z,4
2019-01-02T21:42:31.645Z,3.7
2019-01-02T21:45:31.226Z,3.4
2019-01-02T21:48:31.060Z,3.5
2019-01-02T21:51:31.850Z,3.3
2019-01-02T21:54:31.326Z,3.8
2019-01-02T21:57:31.462Z,3.6
2019-01-02T22:00:31.084Z,3.4
2019-01-02T22:03:31.265Z,3.6
2019-01-02T22:06:31.117Z,3.5
2019-01-02T22:09:30.853Z,3.4
2019-01-02T22:12:31.019Z,3.3
2019-01-02T22:15:30.944Z,4
2019-01-02T22:18:31.080Z,3.3
2019-01-02T22:21:31.085Z,3.2
2019-01-02T22:24:31.019Z,3.4
2019-01-02T22:27:30.900Z,3.5
2019-01-02T22:30:30.918Z,3.9
2019-01-02T22:33:30.995Z,3.7
2019-01-02T22:36:31.433Z,3.4
2019-01-02T22:39:31.509Z,3.8
2019-01-02T22:42:31.457Z,3.8
2019-01-02T22:45:30.944Z,3.6
2019-01-02T22:48:31.248Z,3.3
2019-01-02T22:51:31.434Z,3.3
2019-01-02T22:54:31.241Z,3.3
2019-01-02T22:57:31.399Z,3.6
2019-01-02T23:00:31.498Z,3.5
2019-01-02T23:03:31.924Z,3.6
2019-01-02T23:06:31.819Z,3.5
2019-01-02T23:09:30.988Z,3.3
2019-01-02T23:12:31.187Z,3.4
2019-01-02T23:15:31.506Z,3.7
2019-01-02T23:18:31.889Z,3.4
2019-01-02T23:21:31.364Z,3.4
2019-01-02T23:24:30.911Z,3.3
2019-01-02T23:27:31.095Z,3.3
2019-01-02T23:30:31.099Z,3.3
2019-01-02T23:33:31.333Z,3.5
2019-01-02T23:36:31.085Z,3.3
2019-01-02T23:39:31.216Z,3.4
2019-01-02T23:42:32.193Z,3.6
2019-01-02T23:45:30.933Z,3.5
2019-01-02T23:48:30.969Z,3.7
2019-01-02T23:51:31.252Z,3.6
2019-01-02T23:54:30.951Z,3.5
2019-01-02T23:57:31.193Z,3.2
